sensor_id;sensor_type;location;lat;lon;timestamp;pressure;altitude;pressure_sealevel;temperature;humidity
75317;BME280;63913;51.492;10.368;2023-05-09T00:01:13;98830.34;;;12.28;57.53
75317;BME280;63913;51.492;10.368;2023-05-09T00:03:39;98833.63;;;12.20;57.37
75317;BME280;63913;51.492;10.368;2023-05-09T00:06:05;98839.75;;;12.24;57.29
75317;BME280;63913;51.492;10.368;2023-05-09T00:08:31;98832.72;;;12.18;57.78
75317;BME280;63913;51.492;10.368;2023-05-09T00:10:57;98831.88;;;12.19;58.29
75317;BME280;63913;51.492;10.368;2023-05-09T00:13:22;98832.56;;;12.11;58.04
75317;BME280;63913;51.492;10.368;2023-05-09T00:15:48;98833.47;;;12.13;58.38
75317;BME280;63913;51.492;10.368;2023-05-09T00:18:14;98833.34;;;12.08;58.47
75317;BME280;63913;51.492;10.368;2023-05-09T00:20:39;98830.69;;;12.04;58.83
75317;BME280;63913;51.492;10.368;2023-05-09T00:23:06;98831.47;;;12.01;59.11
75317;BME280;63913;51.492;10.368;2023-05-09T00:25:32;98827.16;;;11.99;59.33
75317;BME280;63913;51.492;10.368;2023-05-09T00:27:57;98833.03;;;11.93;59.24
75317;BME280;63913;51.492;10.368;2023-05-09T00:30:23;98829.31;;;11.80;59.71
75317;BME280;63913;51.492;10.368;2023-05-09T00:32:48;98819.88;;;11.81;60.31
75317;BME280;63913;51.492;10.368;2023-05-09T00:35:14;98817.28;;;11.79;60.16
75317;BME280;63913;51.492;10.368;2023-05-09T00:37:40;98811.03;;;11.71;60.40
75317;BME280;63913;51.492;10.368;2023-05-09T00:40:06;98818.59;;;11.64;61.08
75317;BME280;63913;51.492;10.368;2023-05-09T00:42:32;98823.69;;;11.62;60.82
75317;BME280;63913;51.492;10.368;2023-05-09T00:44:58;98810.38;;;11.44;61.33
75317;BME280;63913;51.492;10.368;2023-05-09T00:47:24;98819.91;;;11.46;61.82
75317;BME280;63913;51.492;10.368;2023-05-09T00:49:51;98814.66;;;11.42;61.81
75317;BME280;63913;51.492;10.368;2023-05-09T00:52:16;98812.03;;;11.40;61.70
75317;BME280;63913;51.492;10.368;2023-05-09T00:54:45;98808.47;;;11.34;62.18
75317;BME280;63913;51.492;10.368;2023-05-09T00:57:10;98807.50;;;11.30;62.21
75317;BME280;63913;51.492;10.368;2023-05-09T00:59:36;98800.47;;;11.23;62.64
75317;BME280;63913;51.492;10.368;2023-05-09T01:02:01;98801.19;;;11.19;62.40
75317;BME280;63913;51.492;10.368;2023-05-09T01:04:27;98794.16;;;11.12;62.91
75317;BME280;63913;51.492;10.368;2023-05-09T01:07:10;98800.09;;;11.08;63.16
75317;BME280;63913;51.492;10.368;2023-05-09T01:09:49;98789.78;;;11.08;63.31
75317;BME280;63913;51.492;10.368;2023-05-09T01:15:05;98787.13;;;11.05;63.21
75317;BME280;63913;51.492;10.368;2023-05-09T01:17:40;98781.88;;;11.00;63.03
75317;BME280;63913;51.492;10.368;2023-05-09T01:20:34;98779.13;;;10.93;63.58
75317;BME280;63913;51.492;10.368;2023-05-09T01:26:04;98777.09;;;10.81;63.79
75317;BME280;63913;51.492;10.368;2023-05-09T01:31:04;98775.00;;;10.66;64.21
75317;BME280;63913;51.492;10.368;2023-05-09T01:33:32;98773.34;;;10.68;64.43
75317;BME280;63913;51.492;10.368;2023-05-09T01:36:03;98781.81;;;10.64;64.66
75317;BME280;63913;51.492;10.368;2023-05-09T01:38:33;98765.44;;;10.61;64.74
75317;BME280;63913;51.492;10.368;2023-05-09T01:41:01;98769.72;;;10.60;64.53
75317;BME280;63913;51.492;10.368;2023-05-09T01:43:29;98777.44;;;10.60;64.48
75317;BME280;63913;51.492;10.368;2023-05-09T01:45:57;98771.28;;;10.55;64.55
75317;BME280;63913;51.492;10.368;2023-05-09T01:48:23;98778.06;;;10.52;64.92
75317;BME280;63913;51.492;10.368;2023-05-09T01:50:55;98766.03;;;10.51;64.85
75317;BME280;63913;51.492;10.368;2023-05-09T01:53:23;98765.97;;;10.49;64.80
75317;BME280;63913;51.492;10.368;2023-05-09T01:55:50;98778.72;;;10.45;65.01
75317;BME280;63913;51.492;10.368;2023-05-09T01:58:17;98770.09;;;10.43;64.69
75317;BME280;63913;51.492;10.368;2023-05-09T02:00:45;98775.03;;;10.35;65.19
75317;BME280;63913;51.492;10.368;2023-05-09T02:03:12;98777.66;;;10.38;65.34
75317;BME280;63913;51.492;10.368;2023-05-09T02:05:39;98769.84;;;10.33;65.46
75317;BME280;63913;51.492;10.368;2023-05-09T02:08:06;98776.56;;;10.28;65.16
75317;BME280;63913;51.492;10.368;2023-05-09T02:10:33;98777.34;;;10.26;65.34
75317;BME280;63913;51.492;10.368;2023-05-09T02:12:59;98773.06;;;10.26;65.53
75317;BME280;63913;51.492;10.368;2023-05-09T02:15:24;98765.44;;;10.29;65.24
75317;BME280;63913;51.492;10.368;2023-05-09T02:17:50;98768.13;;;10.34;64.94
75317;BME280;63913;51.492;10.368;2023-05-09T02:20:16;98769.78;;;10.32;65.04
75317;BME280;63913;51.492;10.368;2023-05-09T02:22:42;98772.25;;;10.27;65.16
75317;BME280;63913;51.492;10.368;2023-05-09T02:25:10;98761.28;;;10.35;65.27
75317;BME280;63913;51.492;10.368;2023-05-09T02:27:38;98759.66;;;10.37;64.59
75317;BME280;63913;51.492;10.368;2023-05-09T02:30:08;98756.06;;;10.31;65.10
75317;BME280;63913;51.492;10.368;2023-05-09T02:32:36;98762.75;;;10.25;65.25
75317;BME280;63913;51.492;10.368;2023-05-09T02:35:03;98771.31;;;10.25;65.42
75317;BME280;63913;51.492;10.368;2023-05-09T02:37:30;98769.66;;;10.27;65.11
75317;BME280;63913;51.492;10.368;2023-05-09T02:39:56;98758.59;;;10.30;65.03
75317;BME280;63913;51.492;10.368;2023-05-09T02:42:23;98760.22;;;10.26;64.92
75317;BME280;63913;51.492;10.368;2023-05-09T02:44:53;98759.34;;;10.26;65.20
75317;BME280;63913;51.492;10.368;2023-05-09T02:47:19;98757.66;;;10.26;65.29
75317;BME280;63913;51.492;10.368;2023-05-09T02:49:44;98762.63;;;10.22;65.17
75317;BME280;63913;51.492;10.368;2023-05-09T02:52:10;98757.56;;;10.23;65.22
75317;BME280;63913;51.492;10.368;2023-05-09T02:54:36;98754.72;;;10.16;65.54
75317;BME280;63913;51.492;10.368;2023-05-09T02:57:02;98753.81;;;10.14;65.44
75317;BME280;63913;51.492;10.368;2023-05-09T02:59:28;98751.84;;;10.04;66.01
75317;BME280;63913;51.492;10.368;2023-05-09T03:01:55;98753.69;;;10.09;65.51
75317;BME280;63913;51.492;10.368;2023-05-09T03:04:20;98748.47;;;10.06;65.64
75317;BME280;63913;51.492;10.368;2023-05-09T03:06:46;98744.19;;;10.05;65.78
75317;BME280;63913;51.492;10.368;2023-05-09T03:09:12;98742.34;;;10.01;65.68
75317;BME280;63913;51.492;10.368;2023-05-09T03:11:37;98744.84;;;10.00;65.96
75317;BME280;63913;51.492;10.368;2023-05-09T03:14:03;98738.91;;;10.01;65.66
75317;BME280;63913;51.492;10.368;2023-05-09T03:16:29;98737.19;;;10.01;66.10
75317;BME280;63913;51.492;10.368;2023-05-09T03:18:55;98737.16;;;10.00;65.66
75317;BME280;63913;51.492;10.368;2023-05-09T03:21:21;98734.59;;;10.00;65.70
75317;BME280;63913;51.492;10.368;2023-05-09T03:23:46;98729.38;;;9.97;65.72
75317;BME280;63913;51.492;10.368;2023-05-09T03:26:12;98731.75;;;9.90;66.08
75317;BME280;63913;51.492;10.368;2023-05-09T03:28:37;98724.91;;;9.91;65.45
75317;BME280;63913;51.492;10.368;2023-05-09T03:31:04;98728.28;;;9.88;66.08
75317;BME280;63913;51.492;10.368;2023-05-09T03:33:30;98717.22;;;9.91;65.96
75317;BME280;63913;51.492;10.368;2023-05-09T03:35:58;98719.72;;;9.89;65.60
75317;BME280;63913;51.492;10.368;2023-05-09T03:38:24;98717.25;;;9.92;65.68
75317;BME280;63913;51.492;10.368;2023-05-09T03:40:49;98712.88;;;9.88;65.47
75317;BME280;63913;51.492;10.368;2023-05-09T03:43:16;98709.41;;;9.86;65.60
75317;BME280;63913;51.492;10.368;2023-05-09T03:45:42;98714.38;;;9.80;65.31
75317;BME280;63913;51.492;10.368;2023-05-09T03:48:09;98716.72;;;9.74;65.68
75317;BME280;63913;51.492;10.368;2023-05-09T03:50:39;98710.66;;;9.71;65.84
75317;BME280;63913;51.492;10.368;2023-05-09T03:53:05;98712.66;;;9.81;66.06
75317;BME280;63913;51.492;10.368;2023-05-09T03:55:31;98708.47;;;9.84;65.43
75317;BME280;63913;51.492;10.368;2023-05-09T03:57:57;98714.53;;;9.86;65.56
75317;BME280;63913;51.492;10.368;2023-05-09T04:00:23;98710.16;;;9.84;65.56
75317;BME280;63913;51.492;10.368;2023-05-09T04:02:59;98711.09;;;9.86;65.50
75317;BME280;63913;51.492;10.368;2023-05-09T04:05:33;98708.47;;;9.84;65.70
75317;BME280;63913;51.492;10.368;2023-05-09T04:08:00;98700.78;;;9.84;65.65
75317;BME280;63913;51.492;10.368;2023-05-09T04:10:26;98716.78;;;9.76;65.59
75317;BME280;63913;51.492;10.368;2023-05-09T04:12:53;98722.97;;;9.82;65.47
75317;BME280;63913;51.492;10.368;2023-05-09T04:15:18;98716.19;;;9.84;65.45
75317;BME280;63913;51.492;10.368;2023-05-09T04:17:44;98708.41;;;9.83;65.53
75317;BME280;63913;51.492;10.368;2023-05-09T04:20:10;98699.81;;;9.81;65.69
75317;BME280;63913;51.492;10.368;2023-05-09T04:22:36;98700.78;;;9.84;65.70
75317;BME280;63913;51.492;10.368;2023-05-09T04:25:02;98697.38;;;9.85;65.42
75317;BME280;63913;51.492;10.368;2023-05-09T04:27:28;98698.09;;;9.81;65.41
75317;BME280;63913;51.492;10.368;2023-05-09T04:29:54;98692.97;;;9.81;65.30
75317;BME280;63913;51.492;10.368;2023-05-09T04:32:19;98694.72;;;9.82;65.31
75317;BME280;63913;51.492;10.368;2023-05-09T04:34:47;98693.72;;;9.77;65.58
75317;BME280;63913;51.492;10.368;2023-05-09T04:37:18;98703.50;;;9.90;65.17
75317;BME280;63913;51.492;10.368;2023-05-09T04:39:44;98697.47;;;9.88;65.13
75317;BME280;63913;51.492;10.368;2023-05-09T04:42:16;98705.28;;;9.93;65.21
75317;BME280;63913;51.492;10.368;2023-05-09T04:44:42;98703.44;;;9.87;65.37
75317;BME280;63913;51.492;10.368;2023-05-09T04:47:07;98693.78;;;9.79;65.77
75317;BME280;63913;51.492;10.368;2023-05-09T04:49:33;98693.06;;;9.84;65.71
75317;BME280;63913;51.492;10.368;2023-05-09T04:51:58;98692.34;;;9.88;65.52
75317;BME280;63913;51.492;10.368;2023-05-09T04:54:24;98695.72;;;9.87;65.83
75317;BME280;63913;51.492;10.368;2023-05-09T04:56:51;98692.34;;;9.90;65.13
75317;BME280;63913;51.492;10.368;2023-05-09T04:59:17;98693.06;;;9.84;65.08
75317;BME280;63913;51.492;10.368;2023-05-09T05:01:42;98690.50;;;9.84;65.31
75317;BME280;63913;51.492;10.368;2023-05-09T05:04:08;98686.44;;;9.92;65.37
75317;BME280;63913;51.492;10.368;2023-05-09T05:06:34;98685.63;;;9.93;64.89
75317;BME280;63913;51.492;10.368;2023-05-09T05:08:59;98673.75;;;9.99;64.51
75317;BME280;63913;51.492;10.368;2023-05-09T05:11:25;98675.66;;;10.04;64.71
75317;BME280;63913;51.492;10.368;2023-05-09T05:13:50;98674.81;;;10.05;64.97
75317;BME280;63913;51.492;10.368;2023-05-09T05:16:16;98675.59;;;10.03;64.97
75317;BME280;63913;51.492;10.368;2023-05-09T05:18:42;98673.94;;;10.05;64.83
75317;BME280;63913;51.492;10.368;2023-05-09T05:21:08;98677.19;;;9.99;65.34
75317;BME280;63913;51.492;10.368;2023-05-09T05:23:33;98674.69;;;10.01;65.14
75317;BME280;63913;51.492;10.368;2023-05-09T05:25:59;98673.91;;;10.03;65.27
75317;BME280;63913;51.492;10.368;2023-05-09T05:28:25;98673.97;;;10.06;65.57
75317;BME280;63913;51.492;10.368;2023-05-09T05:30:50;98665.63;;;10.13;65.56
75317;BME280;63913;51.492;10.368;2023-05-09T05:33:15;98671.69;;;10.17;65.26
75317;BME280;63913;51.492;10.368;2023-05-09T05:35:41;98663.25;;;10.19;65.09
75317;BME280;63913;51.492;10.368;2023-05-09T05:38:07;98659.06;;;10.24;65.21
75317;BME280;63913;51.492;10.368;2023-05-09T05:40:33;98660.88;;;10.27;64.79
75317;BME280;63913;51.492;10.368;2023-05-09T05:43:01;98654.19;;;10.33;64.46
75317;BME280;63913;51.492;10.368;2023-05-09T05:45:28;98662.91;;;10.40;64.18
75317;BME280;63913;51.492;10.368;2023-05-09T05:47:55;98656.91;;;10.40;64.28
75317;BME280;63913;51.492;10.368;2023-05-09T05:50:21;98655.16;;;10.39;63.31
75317;BME280;63913;51.492;10.368;2023-05-09T05:52:47;98657.75;;;10.40;64.45
75317;BME280;63913;51.492;10.368;2023-05-09T05:55:14;98663.00;;;10.43;63.89
75317;BME280;63913;51.492;10.368;2023-05-09T05:57:39;98660.47;;;10.45;63.56
75317;BME280;63913;51.492;10.368;2023-05-09T06:00:07;98665.63;;;10.45;63.76
75317;BME280;63913;51.492;10.368;2023-05-09T06:02:41;98665.72;;;10.49;64.03
75317;BME280;63913;51.492;10.368;2023-05-09T06:05:08;98661.53;;;10.54;63.90
75317;BME280;63913;51.492;10.368;2023-05-09T06:07:33;98656.53;;;10.59;63.56
75317;BME280;63913;51.492;10.368;2023-05-09T06:09:59;98671.09;;;10.58;63.50
75317;BME280;63913;51.492;10.368;2023-05-09T06:12:24;98669.44;;;10.60;64.09
75317;BME280;63913;51.492;10.368;2023-05-09T06:14:50;98667.78;;;10.64;63.33
75317;BME280;63913;51.492;10.368;2023-05-09T06:17:16;98656.69;;;10.65;63.84
75317;BME280;63913;51.492;10.368;2023-05-09T06:19:41;98650.75;;;10.67;63.32
75317;BME280;63913;51.492;10.368;2023-05-09T06:22:07;98644.72;;;10.67;63.51
75317;BME280;63913;51.492;10.368;2023-05-09T06:24:32;98639.69;;;10.70;63.98
75317;BME280;63913;51.492;10.368;2023-05-09T06:26:58;98637.16;;;10.73;63.77
75317;BME280;63913;51.492;10.368;2023-05-09T06:29:23;98631.28;;;10.77;63.36
75317;BME280;63913;51.492;10.368;2023-05-09T06:31:49;98627.00;;;10.79;63.39
75317;BME280;63913;51.492;10.368;2023-05-09T06:34:17;98629.63;;;10.81;63.15
75317;BME280;63913;51.492;10.368;2023-05-09T06:36:42;98626.25;;;10.83;63.34
75317;BME280;63913;51.492;10.368;2023-05-09T06:39:08;98628.13;;;10.90;63.22
75317;BME280;63913;51.492;10.368;2023-05-09T06:41:34;98616.22;;;10.94;62.23
75317;BME280;63913;51.492;10.368;2023-05-09T06:43:59;98616.28;;;10.97;62.08
75317;BME280;63913;51.492;10.368;2023-05-09T06:46:27;98609.63;;;11.06;62.76
75317;BME280;63913;51.492;10.368;2023-05-09T06:48:52;98603.63;;;11.06;62.62
75317;BME280;63913;51.492;10.368;2023-05-09T06:51:18;98602.81;;;11.08;63.17
75317;BME280;63913;51.492;10.368;2023-05-09T06:53:43;98596.06;;;11.14;63.71
75317;BME280;63913;51.492;10.368;2023-05-09T06:56:08;98600.41;;;11.16;63.42
75317;BME280;63913;51.492;10.368;2023-05-09T06:58:34;98603.03;;;11.18;64.01
75317;BME280;63913;51.492;10.368;2023-05-09T07:01:00;98598.03;;;11.25;64.26
75317;BME280;63913;51.492;10.368;2023-05-09T07:03:25;98593.06;;;11.33;64.19
75317;BME280;63913;51.492;10.368;2023-05-09T07:05:51;98595.78;;;11.40;64.39
75317;BME280;63913;51.492;10.368;2023-05-09T07:08:16;98588.13;;;11.45;64.59
75317;BME280;63913;51.492;10.368;2023-05-09T07:10:42;98588.25;;;11.50;63.73
75317;BME280;63913;51.492;10.368;2023-05-09T07:13:07;98596.00;;;11.51;63.91
75317;BME280;63913;51.492;10.368;2023-05-09T07:15:32;98586.69;;;11.58;63.97
75317;BME280;63913;51.492;10.368;2023-05-09T07:17:57;98579.09;;;11.65;64.61
75317;BME280;63913;51.492;10.368;2023-05-09T07:20:23;98577.50;;;11.72;64.25
75317;BME280;63913;51.492;10.368;2023-05-09T07:22:49;98586.25;;;11.78;64.68
75317;BME280;63913;51.492;10.368;2023-05-09T07:25:14;98578.63;;;11.84;64.39
75317;BME280;63913;51.492;10.368;2023-05-09T07:27:40;98579.59;;;11.90;63.98
75317;BME280;63913;51.492;10.368;2023-05-09T07:30:06;98579.66;;;11.94;64.10
75317;BME280;63913;51.492;10.368;2023-05-09T07:32:33;98565.19;;;11.99;64.17
75317;BME280;63913;51.492;10.368;2023-05-09T07:34:59;98563.56;;;12.06;64.50
75317;BME280;63913;51.492;10.368;2023-05-09T07:37:24;98556.84;;;12.14;64.22
75317;BME280;63913;51.492;10.368;2023-05-09T07:39:50;98555.22;;;12.20;63.65
75317;BME280;63913;51.492;10.368;2023-05-09T07:42:16;98552.78;;;12.28;64.38
75317;BME280;63913;51.492;10.368;2023-05-09T07:44:42;98551.22;;;12.38;64.82
75317;BME280;63913;51.492;10.368;2023-05-09T07:47:07;98549.66;;;12.49;63.87
75317;BME280;63913;51.492;10.368;2023-05-09T07:49:34;98554.09;;;12.59;63.71
75317;BME280;63913;51.492;10.368;2023-05-09T07:52:00;98552.50;;;12.64;63.59
75317;BME280;63913;51.492;10.368;2023-05-09T07:54:25;98552.59;;;12.72;64.11
75317;BME280;63913;51.492;10.368;2023-05-09T07:56:50;98551.88;;;12.80;63.34
75317;BME280;63913;51.492;10.368;2023-05-09T07:59:16;98535.59;;;12.86;63.03
75317;BME280;63913;51.492;10.368;2023-05-09T08:01:42;98539.09;;;12.91;62.90
75317;BME280;63913;51.492;10.368;2023-05-09T08:04:08;98533.16;;;12.98;62.55
75317;BME280;63913;51.492;10.368;2023-05-09T08:06:34;98530.69;;;13.04;62.96
75317;BME280;63913;51.492;10.368;2023-05-09T08:08:59;98523.03;;;13.12;63.42
75317;BME280;63913;51.492;10.368;2023-05-09T08:11:25;98521.47;;;13.23;62.85
75317;BME280;63913;51.492;10.368;2023-05-09T08:13:50;98513.81;;;13.30;62.59
75317;BME280;63913;51.492;10.368;2023-05-09T08:16:16;98515.63;;;13.39;62.48
75317;BME280;63913;51.492;10.368;2023-05-09T08:18:44;98503.72;;;13.50;61.63
75317;BME280;63913;51.492;10.368;2023-05-09T08:21:10;98509.81;;;13.58;60.34
75317;BME280;63913;51.492;10.368;2023-05-09T08:23:35;98500.44;;;13.66;61.28
75317;BME280;63913;51.492;10.368;2023-05-09T08:26:00;98503.91;;;13.71;61.02
75317;BME280;63913;51.492;10.368;2023-05-09T08:28:26;98497.13;;;13.83;62.32
75317;BME280;63913;51.492;10.368;2023-05-09T08:30:53;98493.81;;;13.94;61.93
75317;BME280;63913;51.492;10.368;2023-05-09T08:33:18;98495.66;;;14.09;61.54
75317;BME280;63913;51.492;10.368;2023-05-09T08:35:44;98492.38;;;14.31;60.01
75317;BME280;63913;51.492;10.368;2023-05-09T08:38:10;98488.22;;;14.51;59.02
75317;BME280;63913;51.492;10.368;2023-05-09T08:40:36;98493.53;;;14.76;58.66
75317;BME280;63913;51.492;10.368;2023-05-09T08:43:05;98481.59;;;15.02;58.79
75317;BME280;63913;51.492;10.368;2023-05-09T08:45:34;98480.81;;;15.24;57.23
75317;BME280;63913;51.492;10.368;2023-05-09T08:48:02;98476.56;;;15.43;56.24
75317;BME280;63913;51.492;10.368;2023-05-09T08:50:28;98473.19;;;15.62;57.06
75317;BME280;63913;51.492;10.368;2023-05-09T08:52:54;98471.47;;;15.78;56.14
75317;BME280;63913;51.492;10.368;2023-05-09T08:55:20;98461.09;;;15.92;56.67
75317;BME280;63913;51.492;10.368;2023-05-09T08:57:46;98456.78;;;16.06;56.20
75317;BME280;63913;51.492;10.368;2023-05-09T09:00:12;98464.56;;;16.18;56.20
75317;BME280;63913;51.492;10.368;2023-05-09T09:02:41;98462.81;;;16.32;55.06
75317;BME280;63913;51.492;10.368;2023-05-09T09:05:07;98453.31;;;16.44;54.69
75317;BME280;63913;51.492;10.368;2023-05-09T09:07:35;98458.47;;;16.50;55.42
75317;BME280;63913;51.492;10.368;2023-05-09T09:10:02;98458.44;;;16.59;54.76
75317;BME280;63913;51.492;10.368;2023-05-09T09:12:28;98455.88;;;16.65;54.92
75317;BME280;63913;51.492;10.368;2023-05-09T09:14:55;98451.53;;;16.73;55.88
75317;BME280;63913;51.492;10.368;2023-05-09T09:17:24;98452.38;;;16.78;55.47
75317;BME280;63913;51.492;10.368;2023-05-09T09:19:54;98447.16;;;16.86;55.11
75317;BME280;63913;51.492;10.368;2023-05-09T09:22:22;98447.16;;;16.83;54.03
75317;BME280;63913;51.492;10.368;2023-05-09T09:24:49;98444.53;;;16.90;54.02
75317;BME280;63913;51.492;10.368;2023-05-09T09:27:14;98428.91;;;16.99;54.73
75317;BME280;63913;51.492;10.368;2023-05-09T09:29:40;98428.84;;;17.11;54.40
75317;BME280;63913;51.492;10.368;2023-05-09T09:32:05;98421.00;;;17.21;54.02
75317;BME280;63913;51.492;10.368;2023-05-09T09:34:31;98417.50;;;17.32;55.33
75317;BME280;63913;51.492;10.368;2023-05-09T09:36:57;98413.97;;;17.41;54.77
75317;BME280;63913;51.492;10.368;2023-05-09T09:39:22;98413.91;;;17.47;54.72
75317;BME280;63913;51.492;10.368;2023-05-09T09:41:48;98410.41;;;17.54;53.80
75317;BME280;63913;51.492;10.368;2023-05-09T09:44:19;98399.09;;;17.60;53.39
75317;BME280;63913;51.492;10.368;2023-05-09T09:46:52;98399.94;;;17.68;54.44
75317;BME280;63913;51.492;10.368;2023-05-09T09:49:19;98386.84;;;17.80;54.44
75317;BME280;63913;51.492;10.368;2023-05-09T09:51:49;98392.06;;;17.77;53.83
75317;BME280;63913;51.492;10.368;2023-05-09T09:54:16;98375.56;;;17.82;54.43
75317;BME280;63913;51.492;10.368;2023-05-09T09:56:44;98386.72;;;17.92;53.93
75317;BME280;63913;51.492;10.368;2023-05-09T09:59:18;98377.94;;;18.04;53.10
75317;BME280;63913;51.492;10.368;2023-05-09T10:01:56;98377.00;;;18.14;53.40
75317;BME280;63913;51.492;10.368;2023-05-09T10:04:23;98371.72;;;18.20;54.20
75317;BME280;63913;51.492;10.368;2023-05-09T10:06:56;98377.72;;;18.28;51.65
75317;BME280;63913;51.492;10.368;2023-05-09T10:09:23;98368.00;;;18.44;51.52
75317;BME280;63913;51.492;10.368;2023-05-09T10:11:49;98371.38;;;18.56;50.12
75317;BME280;63913;51.492;10.368;2023-05-09T10:14:18;98362.56;;;18.65;50.36
75317;BME280;63913;51.492;10.368;2023-05-09T10:16:45;98365.88;;;18.78;49.37
75317;BME280;63913;51.492;10.368;2023-05-09T10:19:12;98350.16;;;18.84;47.24
75317;BME280;63913;51.492;10.368;2023-05-09T10:21:38;98351.78;;;18.94;47.56
75317;BME280;63913;51.492;10.368;2023-05-09T10:24:06;98349.94;;;19.00;49.31
75317;BME280;63913;51.492;10.368;2023-05-09T10:26:37;98347.19;;;19.11;49.30
75317;BME280;63913;51.492;10.368;2023-05-09T10:29:07;98346.19;;;19.21;49.20
75317;BME280;63913;51.492;10.368;2023-05-09T10:31:36;98339.16;;;19.26;47.49
75317;BME280;63913;51.492;10.368;2023-05-09T10:34:07;98328.72;;;19.25;47.80
75317;BME280;63913;51.492;10.368;2023-05-09T10:36:34;98316.47;;;19.30;48.78
75317;BME280;63913;51.492;10.368;2023-05-09T10:39:01;98315.41;;;19.44;47.94
75317;BME280;63913;51.492;10.368;2023-05-09T10:41:26;98316.16;;;19.53;47.27
75317;BME280;63913;51.492;10.368;2023-05-09T10:43:54;98322.03;;;19.65;47.94
75317;BME280;63913;51.492;10.368;2023-05-09T10:46:22;98315.19;;;19.60;45.82
75317;BME280;63913;51.492;10.368;2023-05-09T10:48:48;98304.63;;;19.66;47.36
75317;BME280;63913;51.492;10.368;2023-05-09T10:51:14;98307.09;;;19.73;45.74
75317;BME280;63913;51.492;10.368;2023-05-09T10:53:46;98300.16;;;19.72;45.07
75317;BME280;63913;51.492;10.368;2023-05-09T10:58:52;98293.06;;;19.80;46.85
75317;BME280;63913;51.492;10.368;2023-05-09T11:03:56;98285.06;;;19.90;44.57
75317;BME280;63913;51.492;10.368;2023-05-09T11:06:44;98265.72;;;20.01;45.41
75317;BME280;63913;51.492;10.368;2023-05-09T11:09:23;98269.03;;;20.09;44.80
75317;BME280;63913;51.492;10.368;2023-05-09T11:11:51;98270.81;;;20.07;43.82
75317;BME280;63913;51.492;10.368;2023-05-09T11:14:42;98255.22;;;20.03;45.43
75317;BME280;63913;51.492;10.368;2023-05-09T11:17:10;98248.50;;;19.93;46.20
75317;BME280;63913;51.492;10.368;2023-05-09T11:22:22;98248.97;;;20.11;44.66
75317;BME280;63913;51.492;10.368;2023-05-09T11:24:59;98247.81;;;20.26;45.36
75317;BME280;63913;51.492;10.368;2023-05-09T11:27:27;98238.97;;;20.33;45.45
75317;BME280;63913;51.492;10.368;2023-05-09T11:29:56;98224.81;;;20.43;45.58
75317;BME280;63913;51.492;10.368;2023-05-09T11:32:32;98229.06;;;20.50;44.05
75317;BME280;63913;51.492;10.368;2023-05-09T11:35:06;98222.91;;;20.51;45.52
75317;BME280;63913;51.492;10.368;2023-05-09T11:37:38;98225.53;;;20.51;46.31
75317;BME280;63913;51.492;10.368;2023-05-09T11:40:11;98228.59;;;20.70;45.91
75317;BME280;63913;51.492;10.368;2023-05-09T11:42:41;98222.63;;;20.65;44.14
75317;BME280;63913;51.492;10.368;2023-05-09T11:45:06;98224.25;;;20.69;46.04
75317;BME280;63913;51.492;10.368;2023-05-09T11:47:35;98204.31;;;20.67;46.64
75317;BME280;63913;51.492;10.368;2023-05-09T11:50:01;98202.50;;;20.69;45.92
75317;BME280;63913;51.492;10.368;2023-05-09T11:52:26;98194.28;;;20.84;45.19
75317;BME280;63913;51.492;10.368;2023-05-09T11:54:57;98201.03;;;20.94;44.93
75317;BME280;63913;51.492;10.368;2023-05-09T11:57:22;98199.00;;;21.07;46.06
75317;BME280;63913;51.492;10.368;2023-05-09T11:59:48;98205.59;;;21.23;45.97
75317;BME280;63913;51.492;10.368;2023-05-09T12:02:13;98192.34;;;21.29;44.83
75317;BME280;63913;51.492;10.368;2023-05-09T12:04:39;98195.94;;;21.25;45.47
75317;BME280;63913;51.492;10.368;2023-05-09T12:07:05;98194.94;;;21.30;45.42
75317;BME280;63913;51.492;10.368;2023-05-09T12:09:33;98192.84;;;21.43;44.29
75317;BME280;63913;51.492;10.368;2023-05-09T12:11:59;98189.53;;;21.37;43.86
75317;BME280;63913;51.492;10.368;2023-05-09T12:14:33;98187.16;;;21.27;44.74
75317;BME280;63913;51.492;10.368;2023-05-09T12:16:59;98187.72;;;21.40;44.03
75317;BME280;63913;51.492;10.368;2023-05-09T12:19:25;98175.59;;;21.36;44.55
75317;BME280;63913;51.492;10.368;2023-05-09T12:21:55;98166.63;;;21.46;44.57
75317;BME280;63913;51.492;10.368;2023-05-09T12:24:25;98169.75;;;21.59;44.68
75317;BME280;63913;51.492;10.368;2023-05-09T12:26:51;98169.56;;;21.65;43.50
75317;BME280;63913;51.492;10.368;2023-05-09T12:29:17;98161.25;;;21.51;42.36
75317;BME280;63913;51.492;10.368;2023-05-09T12:31:43;98161.47;;;21.43;42.61
75317;BME280;63913;51.492;10.368;2023-05-09T12:34:09;98172.50;;;21.54;43.37
75317;BME280;63913;51.492;10.368;2023-05-09T12:36:35;98139.09;;;21.64;42.68
75317;BME280;63913;51.492;10.368;2023-05-09T12:39:10;98162.69;;;21.62;43.94
75317;BME280;63913;51.492;10.368;2023-05-09T12:41:47;98152.50;;;21.52;43.49
75317;BME280;63913;51.492;10.368;2023-05-09T12:44:23;98147.56;;;21.41;43.78
75317;BME280;63913;51.492;10.368;2023-05-09T12:47:00;98141.84;;;21.27;43.78
75317;BME280;63913;51.492;10.368;2023-05-09T12:49:28;98143.03;;;21.48;45.48
75317;BME280;63913;51.492;10.368;2023-05-09T12:51:56;98142.97;;;21.49;43.99
75317;BME280;63913;51.492;10.368;2023-05-09T12:56:47;98130.34;;;21.96;43.86
75317;BME280;63913;51.492;10.368;2023-05-09T12:59:12;98121.22;;;22.09;42.84
75317;BME280;63913;51.492;10.368;2023-05-09T13:01:40;98119.91;;;22.24;41.69
75317;BME280;63913;51.492;10.368;2023-05-09T13:04:06;98116.31;;;22.28;42.32
75317;BME280;63913;51.492;10.368;2023-05-09T13:06:32;98113.00;;;22.49;41.23
75317;BME280;63913;51.492;10.368;2023-05-09T13:09:00;98113.41;;;22.37;40.62